Time,TemperatureF,DewpointF,PressureIn,WindDirection,WindDirectionDegrees,WindSpeedMPH,WindSpeedGustMPH,Humidity,HourlyPrecipIn,Conditions,Clouds,dailyrainin,SoftwareType,DateUTC
2013-07-01 00:01:00,87.0,37.0,-100.00,SW,228,6.0,15.0,17,0.00,,,0.00,,2013-07-01 00:01:00,
2013-07-01 00:11:00,87.0,37.0,-100.00,SW,228,6.0,15.0,17,0.00,,,0.00,,2013-07-01 00:11:00,
2013-07-01 00:42:00,85.0,41.0,-100.00,WSW,254,10.0,22.0,21,0.00,,,-99.99,,2013-07-01 00:42:00,
2013-07-01 00:52:00,85.0,41.0,-100.00,WSW,254,10.0,22.0,21,0.00,,,-99.99,,2013-07-01 00:52:00,
2013-07-01 01:01:00,85.0,41.0,-100.00,WSW,254,10.0,22.0,21,0.00,,,-99.99,,2013-07-01 01:01:00,
2013-07-01 01:11:00,85.0,41.0,-100.00,WSW,254,10.0,22.0,21,0.00,,,-99.99,,2013-07-01 01:11:00,
2013-07-01 01:43:00,82.0,42.0,-100.00,WSW,243,7.0,20.0,24,0.00,,,0.00,,2013-07-01 01:43:00,
2013-07-01 01:52:00,82.0,42.0,-100.00,WSW,243,7.0,20.0,24,0.00,,,0.00,,2013-07-01 01:52:00,
2013-07-01 02:02:00,82.0,42.0,-100.00,WSW,243,7.0,20.0,24,0.00,,,0.00,,2013-07-01 02:02:00,
2013-07-01 02:11:00,82.0,42.0,-100.00,WSW,243,7.0,20.0,24,0.00,,,0.00,,2013-07-01 02:11:00,
2013-07-01 02:44:00,77.0,40.0,-100.00,West,270,3.0,15.0,27,0.00,,,0.00,,2013-07-01 02:44:00,
2013-07-01 02:54:00,77.0,40.0,-100.00,West,270,3.0,15.0,27,0.00,,,0.00,,2013-07-01 02:54:00,
2013-07-01 03:01:00,77.0,40.0,-100.00,West,270,3.0,15.0,27,0.00,,,0.00,,2013-07-01 03:01:00,
2013-07-01 03:11:00,77.0,40.0,-100.00,West,270,3.0,15.0,27,0.00,,,0.00,,2013-07-01 03:11:00,
2013-07-01 03:43:00,70.0,39.0,-100.00,ESE,118,3.0,5.0,32,0.00,,,0.00,,2013-07-01 03:43:00,
2013-07-01 03:52:00,70.0,39.0,-100.00,ESE,118,3.0,5.0,32,0.00,,,0.00,,2013-07-01 03:52:00,
2013-07-01 04:01:00,70.0,39.0,-100.00,ESE,118,3.0,5.0,32,0.00,,,0.00,,2013-07-01 04:01:00,
2013-07-01 04:11:00,70.0,39.0,-100.00,ESE,118,3.0,5.0,32,0.00,,,0.00,,2013-07-01 04:11:00,
2013-07-01 04:43:00,69.0,37.0,-100.00,SW,218,3.0,11.0,31,0.00,,,0.00,,2013-07-01 04:43:00,
2013-07-01 04:53:00,69.0,37.0,-100.00,SW,218,3.0,11.0,31,0.00,,,0.00,,2013-07-01 04:53:00,
2013-07-01 05:01:00,69.0,37.0,-100.00,SW,218,3.0,11.0,31,0.00,,,0.00,,2013-07-01 05:01:00,
2013-07-01 05:11:00,69.0,37.0,-100.00,SW,218,3.0,11.0,31,0.00,,,0.00,,2013-07-01 05:11:00,
2013-07-01 05:42:00,64.0,39.0,-100.00,ESE,120,3.0,5.0,39,0.00,,,0.00,,2013-07-01 05:42:00,
2013-07-01 05:52:00,64.0,39.0,-100.00,ESE,120,3.0,5.0,39,0.00,,,0.00,,2013-07-01 05:52:00,
2013-07-01 06:02:00,64.0,39.0,-100.00,ESE,120,3.0,5.0,39,0.00,,,0.00,,2013-07-01 06:02:00,
2013-07-01 06:12:00,64.0,39.0,-100.00,ESE,120,3.0,5.0,39,0.00,,,0.00,,2013-07-01 06:12:00,
2013-07-01 06:43:00,61.0,37.0,-100.00,ESE,112,1.0,4.0,41,0.00,,,0.00,,2013-07-01 06:43:00,
2013-07-01 06:53:00,61.0,37.0,-100.00,ESE,112,1.0,4.0,41,0.00,,,0.00,,2013-07-01 06:53:00,
2013-07-01 07:01:00,61.0,37.0,-100.00,ESE,112,1.0,4.0,41,0.00,,,0.00,,2013-07-01 07:01:00,
2013-07-01 07:11:00,61.0,37.0,-100.00,ESE,112,1.0,4.0,41,0.00,,,0.00,,2013-07-01 07:11:00,
2013-07-01 07:43:00,59.0,37.0,-100.00,ESE,122,0.0,4.0,43,0.00,,,0.00,,2013-07-01 07:43:00,
2013-07-01 07:53:00,59.0,37.0,-100.00,ESE,122,0.0,4.0,43,0.00,,,0.00,,2013-07-01 07:53:00,
2013-07-01 08:01:00,59.0,37.0,-100.00,ESE,122,0.0,4.0,43,0.00,,,0.00,,2013-07-01 08:01:00,
2013-07-01 08:11:00,59.0,37.0,-100.00,ESE,122,0.0,4.0,43,0.00,,,0.00,,2013-07-01 08:11:00,
2013-07-01 08:43:00,60.0,38.0,-100.00,ENE,63,2.0,3.0,44,0.00,,,0.00,,2013-07-01 08:43:00,
2013-07-01 08:52:00,60.0,38.0,-100.00,ENE,63,2.0,3.0,44,0.00,,,0.00,,2013-07-01 08:52:00,
2013-07-01 09:02:00,60.0,38.0,-100.00,ENE,63,2.0,3.0,44,0.00,,,0.00,,2013-07-01 09:02:00,
2013-07-01 09:11:00,60.0,38.0,-100.00,ENE,63,2.0,3.0,44,0.00,,,0.00,,2013-07-01 09:11:00,
2013-07-01 09:43:00,60.0,39.0,-100.00,SE,130,2.0,9.0,45,0.00,,,0.00,,2013-07-01 09:43:00,
2013-07-01 09:53:00,60.0,39.0,-100.00,SE,130,2.0,9.0,45,0.00,,,0.00,,2013-07-01 09:53:00,
2013-07-01 10:03:00,60.0,39.0,-100.00,SE,130,2.0,9.0,45,0.00,,,0.00,,2013-07-01 10:03:00,
2013-07-01 10:11:00,60.0,39.0,-100.00,SE,130,2.0,9.0,45,0.00,,,0.00,,2013-07-01 10:11:00,
2013-07-01 10:43:00,72.0,38.0,-100.00,SW,219,6.0,14.0,29,0.00,,,0.00,,2013-07-01 10:43:00,
2013-07-01 10:52:00,72.0,38.0,-100.00,SW,219,6.0,14.0,29,0.00,,,0.00,,2013-07-01 10:52:00,
2013-07-01 11:02:00,72.0,38.0,-100.00,SW,219,6.0,14.0,29,0.00,,,0.00,,2013-07-01 11:02:00,
2013-07-01 11:11:00,72.0,38.0,-100.00,SW,219,6.0,14.0,29,0.00,,,0.00,,2013-07-01 11:11:00,
2013-07-01 11:43:00,71.0,44.0,-100.00,WSW,255,5.0,19.0,38,0.00,,,0.00,,2013-07-01 11:43:00,
2013-07-01 11:52:00,71.0,44.0,-100.00,WSW,255,5.0,19.0,38,0.00,,,0.00,,2013-07-01 11:52:00,
2013-07-01 12:01:00,71.0,44.0,-100.00,WSW,255,5.0,19.0,38,0.00,,,0.00,,2013-07-01 12:01:00,
2013-07-01 12:11:00,71.0,44.0,-100.00,WSW,255,5.0,19.0,38,0.00,,,0.00,,2013-07-01 12:11:00,
2013-07-01 12:43:00,68.0,45.0,-100.00,WSW,258,3.0,16.0,43,0.00,,,0.00,,2013-07-01 12:43:00,
2013-07-01 12:53:00,68.0,45.0,-100.00,WSW,258,3.0,16.0,43,0.00,,,0.00,,2013-07-01 12:53:00,
2013-07-01 13:01:00,68.0,45.0,-100.00,WSW,258,3.0,16.0,43,0.00,,,0.00,,2013-07-01 13:01:00,
2013-07-01 13:12:00,68.0,45.0,-100.00,WSW,258,3.0,16.0,43,0.00,,,0.00,,2013-07-01 13:12:00,
2013-07-01 13:43:00,71.0,47.0,-100.00,NW,314,3.0,9.0,43,0.00,,,-99.99,,2013-07-01 13:43:00,
2013-07-01 13:53:00,71.0,47.0,-100.00,NW,314,3.0,9.0,43,0.00,,,-99.99,,2013-07-01 13:53:00,
2013-07-01 14:01:00,71.0,47.0,-100.00,NW,314,3.0,9.0,43,0.00,,,-99.99,,2013-07-01 14:01:00,
2013-07-01 14:11:00,71.0,47.0,-100.00,NW,314,3.0,9.0,43,0.00,,,-99.99,,2013-07-01 14:11:00,
2013-07-01 15:53:00,80.0,47.0,-100.00,NW,304,5.0,9.0,31,0.00,,,0.00,,2013-07-01 15:53:00,
2013-07-01 16:01:00,80.0,47.0,-100.00,NW,304,5.0,9.0,31,0.00,,,0.00,,2013-07-01 16:01:00,
2013-07-01 16:11:00,80.0,47.0,-100.00,NW,304,5.0,9.0,31,0.00,,,0.00,,2013-07-01 16:11:00,
2013-07-01 16:44:00,83.0,47.0,-100.00,WNW,297,4.0,10.0,28,0.00,,,0.00,,2013-07-01 16:44:00,
2013-07-01 16:53:00,83.0,47.0,-100.00,WNW,297,4.0,10.0,28,0.00,,,0.00,,2013-07-01 16:53:00,
2013-07-01 17:02:00,83.0,47.0,-100.00,WNW,297,4.0,10.0,28,0.00,,,0.00,,2013-07-01 17:02:00,
2013-07-01 17:12:00,83.0,47.0,-100.00,WNW,297,4.0,10.0,28,0.00,,,0.00,,2013-07-01 17:12:00,
2013-07-01 17:43:00,86.0,41.0,-100.00,WNW,303,6.0,13.0,21,0.00,,,0.00,,2013-07-01 17:43:00,
2013-07-01 17:53:00,86.0,41.0,-100.00,WNW,303,6.0,13.0,21,0.00,,,0.00,,2013-07-01 17:53:00,
2013-07-01 18:02:00,86.0,41.0,-100.00,WNW,303,6.0,13.0,21,0.00,,,0.00,,2013-07-01 18:02:00,
2013-07-01 18:11:00,86.0,41.0,-100.00,WNW,303,6.0,13.0,21,0.00,,,0.00,,2013-07-01 18:11:00,
2013-07-01 18:44:00,88.0,41.0,-100.00,North,7,7.0,14.0,19,0.00,,,-99.99,,2013-07-01 18:44:00,
2013-07-01 18:53:00,88.0,41.0,-100.00,North,7,7.0,14.0,19,0.00,,,-99.99,,2013-07-01 18:53:00,
2013-07-01 19:01:00,88.0,41.0,-100.00,North,7,7.0,14.0,19,0.00,,,-99.99,,2013-07-01 19:01:00,
2013-07-01 19:11:00,88.0,41.0,-100.00,North,7,7.0,14.0,19,0.00,,,-99.99,,2013-07-01 19:11:00,
2013-07-01 19:44:00,85.0,37.0,-100.00,NNW,344,5.0,15.0,18,0.00,,,0.00,,2013-07-01 19:44:00,
2013-07-01 19:53:00,85.0,37.0,-100.00,NNW,344,5.0,15.0,18,0.00,,,0.00,,2013-07-01 19:53:00,
2013-07-01 20:01:00,85.0,37.0,-100.00,NNW,344,5.0,15.0,18,0.00,,,0.00,,2013-07-01 20:01:00,
2013-07-01 20:11:00,85.0,37.0,-100.00,NNW,344,5.0,15.0,18,0.00,,,0.00,,2013-07-01 20:11:00,
2013-07-01 20:43:00,85.0,46.0,-100.00,SSE,150,8.0,17.0,26,0.00,,,0.00,,2013-07-01 20:43:00,
2013-07-01 20:52:00,85.0,46.0,-100.00,SSE,150,8.0,17.0,26,0.00,,,0.00,,2013-07-01 20:52:00,
2013-07-01 21:01:00,85.0,46.0,-100.00,SSE,150,8.0,17.0,26,0.00,,,0.00,,2013-07-01 21:01:00,
2013-07-01 21:11:00,85.0,46.0,-100.00,SSE,150,8.0,17.0,26,0.00,,,0.00,,2013-07-01 21:11:00,
2013-07-01 21:44:00,90.0,43.0,-100.00,West,269,5.0,14.0,20,0.00,,,0.00,,2013-07-01 21:44:00,
2013-07-01 21:53:00,90.0,43.0,-100.00,West,269,5.0,14.0,20,0.00,,,0.00,,2013-07-01 21:53:00,
2013-07-01 22:01:00,90.0,43.0,-100.00,West,269,5.0,14.0,20,0.00,,,0.00,,2013-07-01 22:01:00,
2013-07-01 22:11:00,90.0,43.0,-100.00,West,269,5.0,14.0,20,0.00,,,0.00,,2013-07-01 22:11:00,
2013-07-01 22:43:00,88.0,39.0,-100.00,West,273,9.0,21.0,18,0.00,,,0.00,,2013-07-01 22:43:00,
2013-07-01 22:53:00,88.0,39.0,-100.00,West,273,9.0,21.0,18,0.00,,,0.00,,2013-07-01 22:53:00,
2013-07-01 23:01:00,88.0,39.0,-100.00,West,273,9.0,21.0,18,0.00,,,0.00,,2013-07-01 23:01:00,
2013-07-01 23:11:00,88.0,39.0,-100.00,West,273,9.0,21.0,18,0.00,,,0.00,,2013-07-01 23:11:00,
2013-07-01 23:44:00,87.0,41.0,-100.00,WSW,254,7.0,20.0,20,0.00,,,0.00,,2013-07-01 23:44:00,
2013-07-01 23:53:00,87.0,41.0,-100.00,WSW,254,7.0,20.0,20,0.00,,,0.00,,2013-07-01 23:53:00,